Time;durP1;ratioP1;P1;durP2;ratioP2;P2;SDS_P1;SDS_P2;PMS_P1;PMS_P2;Temp;Humidity;BMP_temperature;BMP_pressure;BME280_temperature;BME280_humidity;BME280_pressure;Samples;Min_cycle;Max_cycle;Signal;HPM_P1;HPM_P2
2021/06/13 00:01:24;;;;;;;;;;;14.40;55.10;;;;;;6255009;22;19927;-83
2021/06/13 00:03:50;;;;;;;;;;;14.40;55.20;;;;;;6254335;23;19904;-83
2021/06/13 00:06:16;;;;;;;;;;;14.30;55.20;;;;;;6255397;22;19903;-84
2021/06/13 00:08:41;;;;;;;;;;;14.30;55.20;;;;;;6253856;22;19910;-83
2021/06/13 00:11:07;;;;;;;;;;;14.30;55.30;;;;;;6252542;23;19908;-84
2021/06/13 00:13:35;;;;;;;;;;;14.30;55.40;;;;;;6252989;23;19923;-83
2021/06/13 00:16:00;;;;;;;;;;;14.20;55.40;;;;;;6251824;23;19911;-83
2021/06/13 00:18:26;;;;;;;;;;;14.20;55.50;;;;;;6252305;22;19903;-83
2021/06/13 00:20:54;;;;;;;;;;;14.20;55.60;;;;;;6251961;23;19904;-84
2021/06/13 00:23:20;;;;;;;;;;;14.20;55.60;;;;;;6254031;22;19903;-83
2021/06/13 00:25:46;;;;;;;;;;;14.10;55.70;;;;;;6251612;23;19969;-83
2021/06/13 00:28:12;;;;;;;;;;;14.10;55.70;;;;;;6252744;22;19908;-83
2021/06/13 00:30:44;;;;;;;;;;;14.10;55.80;;;;;;6251594;22;20310;-84
2021/06/13 00:33:10;;;;;;;;;;;14.10;55.90;;;;;;6252689;23;19904;-84
2021/06/13 00:35:36;;;;;;;;;;;14.00;55.90;;;;;;6253280;22;19903;-83
2021/06/13 00:38:02;;;;;;;;;;;14.00;56.00;;;;;;6252400;23;19926;-83
2021/06/13 00:40:28;;;;;;;;;;;14.00;56.10;;;;;;6250881;22;19952;-83
2021/06/13 00:42:54;;;;;;;;;;;13.90;56.10;;;;;;6253013;23;19903;-83
2021/06/13 00:45:20;;;;;;;;;;;13.90;56.20;;;;;;6251533;23;19903;-83
2021/06/13 00:47:46;;;;;;;;;;;13.90;56.30;;;;;;6253964;22;19914;-84
2021/06/13 00:50:13;;;;;;;;;;;13.90;56.40;;;;;;6251584;22;19907;-84
2021/06/13 00:52:44;;;;;;;;;;;13.80;56.40;;;;;;6251964;23;19982;-83
2021/06/13 00:55:10;;;;;;;;;;;13.80;56.60;;;;;;6253067;22;20299;-83
2021/06/13 00:57:35;;;;;;;;;;;13.80;56.60;;;;;;6252067;22;19992;-84
2021/06/13 01:00:01;;;;;;;;;;;13.80;56.80;;;;;;6252601;22;20238;-84
2021/06/13 01:02:26;;;;;;;;;;;13.80;56.80;;;;;;6252558;22;19908;-83
2021/06/13 01:04:52;;;;;;;;;;;13.70;56.80;;;;;;6251555;23;19904;-83
2021/06/13 01:07:18;;;;;;;;;;;13.70;56.80;;;;;;6253976;22;20313;-85
2021/06/13 01:09:51;;;;;;;;;;;13.70;56.90;;;;;;6252260;22;20347;-84
2021/06/13 01:12:23;;;;;;;;;;;13.70;56.90;;;;;;6250939;23;19903;-84
2021/06/13 01:15:09;;;;;;;;;;;13.60;56.90;;;;;;6250926;23;19904;-83
2021/06/13 01:17:44;;;;;;;;;;;13.60;57.10;;;;;;6250874;23;19978;-84
2021/06/13 01:20:19;;;;;;;;;;;13.60;57.20;;;;;;6253041;22;19907;-83
2021/06/13 01:23:03;;;;;;;;;;;13.60;57.20;;;;;;6252021;22;19911;-83
2021/06/13 01:25:47;;;;;;;;;;;13.50;57.20;;;;;;6250837;23;19904;-83
2021/06/13 01:28:12;;;;;;;;;;;13.50;57.30;;;;;;6252869;22;19914;-83
2021/06/13 01:30:38;;;;;;;;;;;13.50;57.40;;;;;;6250801;22;19939;-83
2021/06/13 01:33:05;;;;;;;;;;;13.50;57.50;;;;;;6251615;23;19903;-83
2021/06/13 01:35:32;;;;;;;;;;;13.40;57.60;;;;;;6251453;23;20122;-84
2021/06/13 01:38:01;;;;;;;;;;;13.40;57.70;;;;;;6253406;22;19935;-84
2021/06/13 01:40:29;;;;;;;;;;;13.30;57.70;;;;;;6251095;22;20245;-83
2021/06/13 01:42:55;;;;;;;;;;;13.30;57.80;;;;;;6251019;23;19904;-84
2021/06/13 01:45:22;;;;;;;;;;;13.30;58.00;;;;;;6250941;23;20250;-83
2021/06/13 01:47:48;;;;;;;;;;;13.20;58.00;;;;;;6253250;22;20345;-84
2021/06/13 01:50:15;;;;;;;;;;;13.20;58.20;;;;;;6257276;22;19935;-83
2021/06/13 01:52:41;;;;;;;;;;;13.20;58.30;;;;;;6265360;23;19915;-83
2021/06/13 01:55:07;;;;;;;;;;;13.10;58.30;;;;;;6255678;22;20337;-83
2021/06/13 01:57:33;;;;;;;;;;;13.10;58.40;;;;;;6252287;22;19918;-83
2021/06/13 01:59:59;;;;;;;;;;;13.10;58.50;;;;;;6250746;22;19910;-83
2021/06/13 02:02:25;;;;;;;;;;;13.10;58.60;;;;;;6252266;22;19904;-84
2021/06/13 02:04:51;;;;;;;;;;;13.00;58.70;;;;;;6251094;23;20357;-84
2021/06/13 02:07:18;;;;;;;;;;;13.00;58.80;;;;;;6250980;23;19912;-83
2021/06/13 02:09:45;;;;;;;;;;;13.00;58.80;;;;;;6250643;22;19904;-83
2021/06/13 02:12:11;;;;;;;;;;;12.90;58.90;;;;;;6250740;23;19904;-83
2021/06/13 02:14:37;;;;;;;;;;;12.90;59.00;;;;;;6250645;23;19915;-83
2021/06/13 02:17:05;;;;;;;;;;;12.90;59.10;;;;;;6252371;22;19903;-84
2021/06/13 02:19:31;;;;;;;;;;;12.90;59.20;;;;;;6250079;22;19904;-83
2021/06/13 02:21:58;;;;;;;;;;;12.80;59.20;;;;;;6251734;23;19977;-83
2021/06/13 02:24:24;;;;;;;;;;;12.80;59.30;;;;;;6252011;22;19910;-83
2021/06/13 02:26:50;;;;;;;;;;;12.80;59.40;;;;;;6250349;23;19907;-83
2021/06/13 02:29:16;;;;;;;;;;;12.80;59.50;;;;;;6250817;22;19904;-84
2021/06/13 02:31:43;;;;;;;;;;;12.80;59.60;;;;;;6250753;23;20250;-83
2021/06/13 02:34:09;;;;;;;;;;;12.80;59.60;;;;;;6250357;23;19966;-83
2021/06/13 02:36:35;;;;;;;;;;;12.80;59.70;;;;;;6250260;23;19904;-83
2021/06/13 02:39:04;;;;;;;;;;;12.70;59.70;;;;;;6252061;22;19904;-83
2021/06/13 02:41:31;;;;;;;;;;;12.80;59.90;;;;;;6250036;23;19910;-83
2021/06/13 02:43:57;;;;;;;;;;;12.70;59.90;;;;;;6252099;22;20383;-84
2021/06/13 02:46:22;;;;;;;;;;;12.70;59.90;;;;;;6252034;23;19912;-84
2021/06/13 02:48:48;;;;;;;;;;;12.70;60.00;;;;;;6252366;22;19946;-83
2021/06/13 02:51:14;;;;;;;;;;;12.60;60.10;;;;;;6249929;23;19911;-83
2021/06/13 02:53:43;;;;;;;;;;;12.60;60.30;;;;;;6251044;23;19910;-83
2021/06/13 02:56:08;;;;;;;;;;;12.70;60.50;;;;;;6249937;23;19945;-83
2021/06/13 02:58:40;;;;;;;;;;;12.60;60.50;;;;;;6252407;22;19910;-84
2021/06/13 03:01:07;;;;;;;;;;;12.60;60.50;;;;;;6251578;22;19935;-83
2021/06/13 03:03:46;;;;;;;;;;;12.60;60.70;;;;;;6251236;22;20251;-84
2021/06/13 03:06:17;;;;;;;;;;;12.60;60.80;;;;;;6250355;23;20238;-83
2021/06/13 03:08:43;;;;;;;;;;;12.60;61.00;;;;;;6250533;22;19907;-83
2021/06/13 03:11:10;;;;;;;;;;;12.50;60.90;;;;;;6251174;23;19931;-83
2021/06/13 03:13:38;;;;;;;;;;;12.50;61.00;;;;;;6251902;22;19991;-83
2021/06/13 03:16:06;;;;;;;;;;;12.50;60.90;;;;;;6250831;23;19904;-83
2021/06/13 03:18:33;;;;;;;;;;;12.50;61.00;;;;;;6251727;22;19910;-83
2021/06/13 03:21:00;;;;;;;;;;;12.40;61.10;;;;;;6250373;23;19904;-84
2021/06/13 03:23:29;;;;;;;;;;;12.40;61.20;;;;;;6251692;22;19948;-83
2021/06/13 03:25:55;;;;;;;;;;;12.40;61.30;;;;;;6251437;22;19907;-83
2021/06/13 03:28:21;;;;;;;;;;;12.40;61.40;;;;;;6253175;22;19908;-82
2021/06/13 03:30:47;;;;;;;;;;;12.40;61.70;;;;;;6256213;22;19951;-83
2021/06/13 03:33:14;;;;;;;;;;;12.40;61.70;;;;;;6254906;22;19961;-83
2021/06/13 03:35:40;;;;;;;;;;;12.50;61.90;;;;;;6256357;22;19904;-84
2021/06/13 03:38:06;;;;;;;;;;;12.50;61.90;;;;;;6256700;22;19903;-83
2021/06/13 03:40:39;;;;;;;;;;;12.50;62.00;;;;;;6255065;22;19935;-84
2021/06/13 03:43:05;;;;;;;;;;;12.50;62.10;;;;;;6256962;22;19903;-84
2021/06/13 03:45:30;;;;;;;;;;;12.50;62.10;;;;;;6255538;23;19904;-84
2021/06/13 03:47:58;;;;;;;;;;;12.60;62.20;;;;;;6256216;23;19961;-84
2021/06/13 03:50:25;;;;;;;;;;;12.60;62.20;;;;;;6258259;22;19951;-83
2021/06/13 03:52:50;;;;;;;;;;;12.60;62.10;;;;;;6255653;23;19903;-84
2021/06/13 03:55:16;;;;;;;;;;;12.60;62.10;;;;;;6257105;23;19927;-83
2021/06/13 03:57:44;;;;;;;;;;;12.70;62.30;;;;;;6258371;22;20295;-84
2021/06/13 04:00:10;;;;;;;;;;;12.70;62.30;;;;;;6256571;22;19958;-83
2021/06/13 04:02:39;;;;;;;;;;;12.80;62.40;;;;;;6255118;22;20280;-84
2021/06/13 04:05:04;;;;;;;;;;;12.80;62.30;;;;;;6252745;23;19903;-84
2021/06/13 04:07:30;;;;;;;;;;;12.80;62.40;;;;;;6252739;23;19915;-84
2021/06/13 04:09:56;;;;;;;;;;;12.90;62.40;;;;;;6253481;22;19904;-84
2021/06/13 04:12:22;;;;;;;;;;;12.90;62.40;;;;;;6252499;23;19911;-84
2021/06/13 04:14:48;;;;;;;;;;;13.00;62.40;;;;;;6254808;22;19903;-84
2021/06/13 04:17:14;;;;;;;;;;;13.00;62.30;;;;;;6254633;22;19907;-84
2021/06/13 04:19:40;;;;;;;;;;;13.10;62.40;;;;;;6253750;22;19934;-83
2021/06/13 04:22:08;;;;;;;;;;;13.20;62.30;;;;;;6254382;22;19907;-84
2021/06/13 04:24:33;;;;;;;;;;;13.30;62.30;;;;;;6252427;23;19903;-85
2021/06/13 04:26:59;;;;;;;;;;;13.30;62.20;;;;;;6251938;23;20227;-83
2021/06/13 04:29:27;;;;;;;;;;;13.40;63.00;;;;;;6252596;22;20147;-83
2021/06/13 04:31:58;;;;;;;;;;;13.40;63.00;;;;;;6253005;22;19911;-83
2021/06/13 04:34:24;;;;;;;;;;;13.50;62.20;;;;;;6252238;23;19904;-84
2021/06/13 04:36:49;;;;;;;;;;;13.50;62.10;;;;;;6253148;22;19965;-83
2021/06/13 04:39:22;;;;;;;;;;;13.60;62.30;;;;;;6254285;22;19904;-83
2021/06/13 04:41:48;;;;;;;;;;;13.70;62.30;;;;;;6252596;23;19910;-83
2021/06/13 04:44:13;;;;;;;;;;;13.70;62.10;;;;;;6253632;23;19904;-84
2021/06/13 04:46:39;;;;;;;;;;;13.70;62.20;;;;;;6254089;23;19916;-83
2021/06/13 04:49:04;;;;;;;;;;;13.80;62.40;;;;;;6251890;22;19911;-84
2021/06/13 04:51:34;;;;;;;;;;;13.90;62.40;;;;;;6251423;23;20342;-83
2021/06/13 04:54:02;;;;;;;;;;;13.90;62.30;;;;;;6254887;22;19991;-83
2021/06/13 04:56:27;;;;;;;;;;;13.90;62.30;;;;;;6251682;23;19911;-83
2021/06/13 04:58:53;;;;;;;;;;;14.00;62.30;;;;;;6254141;22;19904;-83
2021/06/13 05:01:18;;;;;;;;;;;14.10;62.30;;;;;;6253319;23;19911;-85
2021/06/13 05:03:44;;;;;;;;;;;14.20;62.20;;;;;;6252466;23;19908;-84
2021/06/13 05:06:10;;;;;;;;;;;14.20;62.20;;;;;;6261292;22;19904;-83
2021/06/13 05:08:35;;;;;;;;;;;14.30;62.30;;;;;;6267393;22;19985;-84
2021/06/13 05:11:01;;;;;;;;;;;14.40;62.30;;;;;;6253679;22;19952;-84
2021/06/13 05:13:26;;;;;;;;;;;14.50;62.30;;;;;;6251023;23;19904;-83
2021/06/13 05:15:52;;;;;;;;;;;14.60;62.30;;;;;;6251838;23;19904;-83
2021/06/13 05:18:18;;;;;;;;;;;14.80;62.20;;;;;;6252891;22;19944;-83
2021/06/13 05:20:44;;;;;;;;;;;14.90;62.80;;;;;;6253085;23;19903;-84
2021/06/13 05:23:09;;;;;;;;;;;15.00;61.90;;;;;;6253050;22;19910;-84
2021/06/13 05:25:36;;;;;;;;;;;15.10;62.20;;;;;;6251489;23;19931;-83
2021/06/13 05:28:02;;;;;;;;;;;15.20;62.20;;;;;;6252848;22;20446;-84
2021/06/13 05:30:29;;;;;;;;;;;15.30;62.00;;;;;;6251888;22;19910;-84
2021/06/13 05:32:55;;;;;;;;;;;15.40;61.90;;;;;;6252368;22;19926;-84
2021/06/13 05:35:21;;;;;;;;;;;15.50;61.80;;;;;;6251772;23;19908;-83
2021/06/13 05:37:46;;;;;;;;;;;15.70;61.80;;;;;;6251926;23;19908;-83
2021/06/13 05:40:12;;;;;;;;;;;15.80;61.60;;;;;;6252521;22;19914;-83
2021/06/13 05:42:38;;;;;;;;;;;16.00;61.50;;;;;;6252385;22;19903;-84
2021/06/13 05:45:05;;;;;;;;;;;16.10;62.10;;;;;;6253439;23;19910;-83
2021/06/13 05:47:33;;;;;;;;;;;16.30;61.10;;;;;;6251889;23;19915;-84
2021/06/13 05:49:58;;;;;;;;;;;16.40;60.90;;;;;;6250642;22;20029;-84
2021/06/13 05:52:24;;;;;;;;;;;16.50;60.70;;;;;;6252827;23;19919;-83
2021/06/13 05:54:49;;;;;;;;;;;16.70;60.60;;;;;;6251186;23;19911;-84
2021/06/13 05:57:15;;;;;;;;;;;16.80;60.40;;;;;;6251291;23;19915;-84
2021/06/13 05:59:40;;;;;;;;;;;17.00;60.30;;;;;;6252641;22;19903;-83
2021/06/13 06:02:06;;;;;;;;;;;17.10;60.20;;;;;;6251805;23;19917;-83
2021/06/13 06:04:32;;;;;;;;;;;17.20;60.30;;;;;;6250492;23;19911;-84
2021/06/13 06:06:58;;;;;;;;;;;17.30;60.30;;;;;;6250419;23;19912;-83
2021/06/13 06:09:24;;;;;;;;;;;17.60;60.20;;;;;;6252270;22;20001;-84
2021/06/13 06:11:49;;;;;;;;;;;18.20;60.00;;;;;;6251661;22;19904;-84
2021/06/13 06:14:15;;;;;;;;;;;19.30;59.50;;;;;;6252984;23;19931;-83
2021/06/13 06:16:40;;;;;;;;;;;21.90;57.40;;;;;;6250641;23;19926;-84
2021/06/13 06:19:06;;;;;;;;;;;25.50;52.70;;;;;;6252230;22;19986;-84
2021/06/13 06:21:31;;;;;;;;;;;28.90;47.20;;;;;;6251256;23;19927;-84
2021/06/13 06:23:57;;;;;;;;;;;31.70;43.40;;;;;;6251790;23;19903;-84
2021/06/13 06:26:22;;;;;;;;;;;34.20;40.60;;;;;;6251865;23;20317;-84
2021/06/13 06:28:50;;;;;;;;;;;36.40;38.60;;;;;;6254228;22;19911;-82
2021/06/13 06:31:16;;;;;;;;;;;38.10;36.40;;;;;;6256529;22;19904;-82
2021/06/13 06:33:41;;;;;;;;;;;39.60;35.10;;;;;;6257667;23;19930;-82
2021/06/13 06:36:07;;;;;;;;;;;40.80;34.00;;;;;;6255311;23;19908;-82
2021/06/13 06:38:32;;;;;;;;;;;42.00;33.20;;;;;;6253308;22;19910;-81
2021/06/13 06:40:58;;;;;;;;;;;42.90;32.10;;;;;;6255017;23;19904;-83
2021/06/13 06:43:24;;;;;;;;;;;43.60;31.20;;;;;;6257967;22;19927;-82
2021/06/13 06:45:50;;;;;;;;;;;44.50;31.00;;;;;;6257798;22;19903;-82
2021/06/13 06:48:16;;;;;;;;;;;45.60;30.80;;;;;;6254953;22;19912;-82
2021/06/13 06:50:41;;;;;;;;;;;46.40;30.30;;;;;;6256042;23;20022;-82
2021/06/13 06:53:07;;;;;;;;;;;46.90;29.60;;;;;;6255136;23;19904;-82
2021/06/13 06:55:32;;;;;;;;;;;47.30;29.40;;;;;;6255888;23;20351;-82
2021/06/13 06:57:58;;;;;;;;;;;47.90;29.30;;;;;;6254282;23;19926;-83
2021/06/13 07:00:23;;;;;;;;;;;48.50;28.70;;;;;;6257939;22;19904;-83
2021/06/13 07:02:49;;;;;;;;;;;48.10;27.30;;;;;;6255143;23;19911;-82
2021/06/13 07:05:15;;;;;;;;;;;48.10;27.50;;;;;;6257444;23;19903;-83
2021/06/13 07:07:42;;;;;;;;;;;48.70;27.80;;;;;;6254856;23;19907;-82
2021/06/13 07:10:08;;;;;;;;;;;49.30;27.70;;;;;;6255851;22;19911;-83
2021/06/13 07:12:33;;;;;;;;;;;49.70;27.50;;;;;;6253531;23;19908;-83
2021/06/13 07:14:59;;;;;;;;;;;49.80;27.10;;;;;;6255767;23;19982;-83
2021/06/13 07:17:24;;;;;;;;;;;49.90;27.20;;;;;;6255262;22;19938;-82
2021/06/13 07:19:50;;;;;;;;;;;49.90;26.00;;;;;;6254995;22;19938;-83
2021/06/13 07:22:15;;;;;;;;;;;49.40;25.60;;;;;;6256853;23;20364;-83
2021/06/13 07:24:41;;;;;;;;;;;49.00;25.70;;;;;;6258026;23;19911;-83
2021/06/13 07:27:06;;;;;;;;;;;45.10;27.20;;;;;;6255809;23;20210;-83
2021/06/13 07:29:32;;;;;;;;;;;42.90;28.50;;;;;;6254134;22;19904;-83
2021/06/13 07:31:57;;;;;;;;;;;44.10;27.40;;;;;;6250749;23;19903;-83
2021/06/13 07:34:23;;;;;;;;;;;45.60;26.80;;;;;;6248611;23;19904;-83
2021/06/13 07:36:48;;;;;;;;;;;47.00;26.20;;;;;;6248846;23;19914;-83
2021/06/13 07:39:14;;;;;;;;;;;48.30;25.90;;;;;;6249774;22;20376;-83
2021/06/13 07:41:42;;;;;;;;;;;49.40;25.60;;;;;;6258090;23;19904;-83
2021/06/13 07:44:10;;;;;;;;;;;49.40;24.90;;;;;;6256174;23;20336;-83
2021/06/13 07:46:38;;;;;;;;;;;45.90;25.20;;;;;;6257254;22;20277;-83
2021/06/13 07:49:06;;;;;;;;;;;45.40;26.10;;;;;;6255255;22;19904;-82
2021/06/13 07:51:32;;;;;;;;;;;42.90;26.60;;;;;;6254876;23;20234;-83
2021/06/13 07:53:57;;;;;;;;;;;44.30;26.10;;;;;;6252266;23;19904;-83
2021/06/13 07:56:23;;;;;;;;;;;45.50;25.30;;;;;;6255148;23;19918;-83
2021/06/13 07:58:48;;;;;;;;;;;44.00;25.40;;;;;;6258975;22;20314;-83
2021/06/13 08:01:14;;;;;;;;;;;43.30;26.00;;;;;;6259145;23;19904;-83
2021/06/13 08:03:40;;;;;;;;;;;41.10;27.10;;;;;;6258836;23;19907;-83
2021/06/13 08:06:06;;;;;;;;;;;41.50;27.40;;;;;;6260472;22;19908;-83
2021/06/13 08:08:34;;;;;;;;;;;42.40;27.00;;;;;;6258539;22;20306;-83
2021/06/13 08:11:00;;;;;;;;;;;43.90;26.50;;;;;;6259304;22;19907;-83
2021/06/13 08:13:28;;;;;;;;;;;42.70;25.80;;;;;;6258800;23;19908;-83
2021/06/13 08:15:53;;;;;;;;;;;41.50;27.40;;;;;;6260519;22;19951;-83
2021/06/13 08:18:20;;;;;;;;;;;41.20;26.70;;;;;;6260200;22;19908;-85
2021/06/13 08:20:47;;;;;;;;;;;42.60;27.00;;;;;;6259616;22;19910;-83
2021/06/13 08:23:13;;;;;;;;;;;45.00;25.90;;;;;;6255991;23;19965;-84
2021/06/13 08:25:39;;;;;;;;;;;46.40;24.60;;;;;;6267865;22;19919;-84
2021/06/13 08:28:07;;;;;;;;;;;47.50;24.00;;;;;;6259824;23;19904;-84
2021/06/13 08:30:35;;;;;;;;;;;48.50;23.90;;;;;;6249587;22;19925;-83
2021/06/13 08:33:01;;;;;;;;;;;49.40;23.90;;;;;;6252200;22;19903;-83
2021/06/13 08:35:27;;;;;;;;;;;50.10;23.60;;;;;;6249712;23;19923;-84
2021/06/13 08:37:52;;;;;;;;;;;50.50;23.50;;;;;;6249229;23;19907;-83
2021/06/13 08:40:18;;;;;;;;;;;50.80;23.20;;;;;;6250341;22;19903;-84
2021/06/13 08:42:44;;;;;;;;;;;51.00;23.20;;;;;;6248998;23;19982;-83
2021/06/13 08:45:10;;;;;;;;;;;51.30;23.30;;;;;;6249847;23;20234;-84
2021/06/13 08:47:36;;;;;;;;;;;51.50;23.40;;;;;;6247627;23;19907;-83
2021/06/13 08:50:04;;;;;;;;;;;51.60;23.40;;;;;;6249509;22;19911;-84
2021/06/13 08:52:30;;;;;;;;;;;51.90;23.40;;;;;;6248975;22;19959;-83
2021/06/13 08:55:02;;;;;;;;;;;51.20;21.70;;;;;;6250521;22;19915;-84
2021/06/13 08:57:28;;;;;;;;;;;50.20;21.80;;;;;;6249743;23;19981;-84
2021/06/13 08:59:53;;;;;;;;;;;50.00;22.20;;;;;;6249568;22;19990;-83
2021/06/13 09:02:19;;;;;;;;;;;49.70;22.10;;;;;;6250269;23;20237;-83
2021/06/13 09:04:45;;;;;;;;;;;49.20;22.20;;;;;;6251845;22;20585;-83
2021/06/13 09:07:28;;;;;;;;;;;49.30;22.50;;;;;;6251498;23;19953;-83
2021/06/13 09:09:55;;;;;;;;;;;49.20;21.80;;;;;;6252428;22;19910;-84
2021/06/13 09:12:21;;;;;;;;;;;48.90;22.00;;;;;;6252368;22;19907;-83
2021/06/13 09:14:47;;;;;;;;;;;49.10;22.20;;;;;;6251697;22;19908;-84
2021/06/13 09:17:15;;;;;;;;;;;49.30;22.30;;;;;;6249922;23;19911;-83
2021/06/13 09:19:59;;;;;;;;;;;49.50;22.40;;;;;;6251040;22;19942;-83
2021/06/13 09:22:24;;;;;;;;;;;49.70;22.60;;;;;;6251007;23;19903;-83
2021/06/13 09:25:02;;;;;;;;;;;49.90;22.70;;;;;;6255542;23;19910;-83
2021/06/13 09:27:28;;;;;;;;;;;50.00;22.80;;;;;;6252558;22;19994;-83
2021/06/13 09:29:53;;;;;;;;;;;49.80;22.70;;;;;;6250469;22;19903;-83
2021/06/13 09:32:19;;;;;;;;;;;49.60;23.00;;;;;;6252214;22;19979;-83
2021/06/13 09:34:44;;;;;;;;;;;49.50;23.10;;;;;;6251154;23;20233;-83
2021/06/13 09:37:10;;;;;;;;;;;49.40;23.10;;;;;;6251455;23;19986;-83
2021/06/13 09:39:35;;;;;;;;;;;49.20;23.10;;;;;;6251929;22;19908;-83
2021/06/13 09:42:08;;;;;;;;;;;49.10;23.20;;;;;;6249885;23;19904;-84
2021/06/13 09:44:35;;;;;;;;;;;49.00;23.30;;;;;;6251510;22;19904;-83
2021/06/13 09:47:03;;;;;;;;;;;48.90;23.30;;;;;;6251447;23;19934;-83
2021/06/13 09:49:41;;;;;;;;;;;48.60;23.30;;;;;;6256384;22;19945;-83
2021/06/13 09:52:08;;;;;;;;;;;48.40;23.50;;;;;;6255463;23;20369;-83
2021/06/13 09:54:33;;;;;;;;;;;48.40;23.70;;;;;;6255497;23;20326;-83
2021/06/13 09:57:01;;;;;;;;;;;48.40;23.70;;;;;;6255575;23;19923;-83
2021/06/13 09:59:27;;;;;;;;;;;48.40;23.80;;;;;;6254475;22;19910;-83
2021/06/13 10:01:54;;;;;;;;;;;48.10;23.40;;;;;;6256908;22;19932;-83
2021/06/13 10:04:29;;;;;;;;;;;47.80;23.70;;;;;;6256608;22;19903;-83
2021/06/13 10:07:15;;;;;;;;;;;47.70;23.60;;;;;;6256146;22;19910;-84
2021/06/13 10:09:41;;;;;;;;;;;47.70;23.70;;;;;;6235526;22;19910;-83
2021/06/13 10:12:08;;;;;;;;;;;47.70;23.80;;;;;;6256747;22;19910;-83
2021/06/13 10:14:34;;;;;;;;;;;47.60;23.70;;;;;;6254921;23;19903;-83
2021/06/13 10:16:59;;;;;;;;;;;47.40;23.80;;;;;;6254146;23;19915;-84
2021/06/13 10:19:41;;;;;;;;;;;47.40;23.90;;;;;;6254275;22;19990;-84
2021/06/13 10:22:24;;;;;;;;;;;47.10;23.60;;;;;;6254470;23;19914;-83
2021/06/13 10:24:49;;;;;;;;;;;46.80;23.80;;;;;;6254615;23;19951;-83
2021/06/13 10:27:21;;;;;;;;;;;46.80;23.70;;;;;;6254929;23;20372;-83
2021/06/13 10:29:50;;;;;;;;;;;46.50;23.60;;;;;;6253910;22;19911;-83
2021/06/13 10:32:26;;;;;;;;;;;46.40;23.60;;;;;;6253545;23;19908;-83
2021/06/13 10:34:59;;;;;;;;;;;45.80;22.80;;;;;;6253881;23;19969;-83
2021/06/13 10:37:24;;;;;;;;;;;45.80;23.20;;;;;;6255614;22;20247;-83
2021/06/13 10:39:52;;;;;;;;;;;46.20;23.30;;;;;;6253708;22;19910;-83
2021/06/13 10:42:19;;;;;;;;;;;46.00;22.90;;;;;;6253072;23;20241;-83
2021/06/13 10:44:51;;;;;;;;;;;45.40;22.70;;;;;;6255331;22;19911;-83
2021/06/13 10:47:20;;;;;;;;;;;45.20;23.00;;;;;;6255706;22;19938;-83
2021/06/13 10:49:59;;;;;;;;;;;45.70;23.10;;;;;;6253695;22;20003;-85
2021/06/13 10:52:28;;;;;;;;;;;46.20;23.00;;;;;;6254736;22;19990;-83
2021/06/13 10:54:55;;;;;;;;;;;46.50;22.80;;;;;;6252232;23;19982;-83
2021/06/13 10:57:38;;;;;;;;;;;46.20;22.50;;;;;;6253200;23;19918;-83
2021/06/13 11:00:05;;;;;;;;;;;45.50;22.20;;;;;;6253553;22;19935;-83
2021/06/13 11:02:36;;;;;;;;;;;45.20;22.60;;;;;;6254164;22;19974;-83
2021/06/13 11:05:03;;;;;;;;;;;45.10;22.80;;;;;;6253630;22;19935;-83
2021/06/13 11:10:16;;;;;;;;;;;45.40;23.10;;;;;;6250245;22;20002;-83
2021/06/13 11:12:49;;;;;;;;;;;45.60;23.10;;;;;;6248083;23;19904;-83
2021/06/13 11:15:36;;;;;;;;;;;45.60;23.10;;;;;;6249582;22;20333;-83
2021/06/13 11:18:01;;;;;;;;;;;45.80;23.20;;;;;;6249890;22;19907;-83
2021/06/13 11:20:26;;;;;;;;;;;45.80;23.20;;;;;;6250169;22;19895;-83
2021/06/13 11:22:52;;;;;;;;;;;45.10;22.60;;;;;;6249806;23;19903;-83
2021/06/13 11:25:19;;;;;;;;;;;44.20;22.90;;;;;;6251130;23;19911;-83
2021/06/13 11:28:06;;;;;;;;;;;44.10;23.20;;;;;;6249803;23;19911;-83
2021/06/13 11:30:31;;;;;;;;;;;44.20;23.20;;;;;;6251836;22;19982;-83
2021/06/13 11:32:59;;;;;;;;;;;44.10;23.20;;;;;;6251117;23;19904;-83
2021/06/13 11:35:25;;;;;;;;;;;44.10;23.30;;;;;;6251543;23;19908;-83
2021/06/13 11:38:09;;;;;;;;;;;44.20;23.30;;;;;;6251509;23;19991;-83
2021/06/13 11:40:36;;;;;;;;;;;43.70;22.80;;;;;;6253627;22;19903;-83
2021/06/13 11:43:11;;;;;;;;;;;43.20;23.00;;;;;;6263604;23;19904;-84
2021/06/13 11:45:52;;;;;;;;;;;43.10;23.20;;;;;;6259959;23;19926;-83
2021/06/13 11:48:21;;;;;;;;;;;43.30;23.30;;;;;;6254053;22;20396;-83
2021/06/13 11:51:05;;;;;;;;;;;42.90;22.90;;;;;;6252636;23;19904;-83
2021/06/13 11:53:49;;;;;;;;;;;42.60;23.20;;;;;;6254650;23;19903;-83
2021/06/13 11:56:33;;;;;;;;;;;42.50;23.30;;;;;;6254208;23;19918;-83
2021/06/13 11:58:59;;;;;;;;;;;42.60;23.40;;;;;;6253083;22;19912;-83
2021/06/13 12:01:25;;;;;;;;;;;42.50;23.20;;;;;;6252796;23;19910;-85
2021/06/13 12:03:51;;;;;;;;;;;42.20;23.10;;;;;;6252919;23;19903;-83
2021/06/13 12:06:20;;;;;;;;;;;41.50;22.90;;;;;;6254865;23;19926;-84
2021/06/13 12:08:47;;;;;;;;;;;41.10;23.20;;;;;;6255156;22;19918;-84
2021/06/13 12:11:26;;;;;;;;;;;41.00;23.30;;;;;;6256442;23;19923;-83
2021/06/13 12:13:51;;;;;;;;;;;41.00;23.40;;;;;;6257399;22;19904;-84
2021/06/13 12:16:17;;;;;;;;;;;41.10;23.20;;;;;;6257444;23;19903;-83
2021/06/13 12:18:57;;;;;;;;;;;40.70;23.10;;;;;;6255787;22;20334;-83
2021/06/13 12:21:24;;;;;;;;;;;40.20;23.00;;;;;;6255951;23;20010;-83
2021/06/13 12:23:57;;;;;;;;;;;39.80;23.00;;;;;;6256769;23;19904;-83
2021/06/13 12:29:23;;;;;;;;;;;38.70;22.80;;;;;;6255952;22;19911;-83
2021/06/13 12:31:49;;;;;;;;;;;37.60;22.70;;;;;;6253808;23;19960;-83
2021/06/13 12:34:19;;;;;;;;;;;37.10;23.20;;;;;;6255261;22;20031;-84
2021/06/13 12:36:51;;;;;;;;;;;36.90;23.40;;;;;;6254625;22;19926;-84
2021/06/13 12:39:24;;;;;;;;;;;36.90;23.50;;;;;;6255877;22;19954;-83
2021/06/13 12:41:50;;;;;;;;;;;36.60;23.60;;;;;;6255129;23;19904;-82
2021/06/13 12:44:15;;;;;;;;;;;36.30;23.70;;;;;;6253470;23;19907;-84
2021/06/13 12:46:41;;;;;;;;;;;36.10;23.90;;;;;;6255127;23;19907;-82
2021/06/13 12:49:06;;;;;;;;;;;35.80;23.90;;;;;;6254560;22;19903;-83
2021/06/13 12:51:34;;;;;;;;;;;35.50;24.10;;;;;;6254168;23;19911;-83
2021/06/13 12:53:59;;;;;;;;;;;35.40;24.40;;;;;;6255766;22;19904;-83
2021/06/13 12:56:25;;;;;;;;;;;35.50;24.40;;;;;;6254324;23;19922;-82
2021/06/13 12:58:51;;;;;;;;;;;35.40;24.40;;;;;;6254870;22;19915;-83
2021/06/13 13:01:17;;;;;;;;;;;35.40;24.60;;;;;;6255838;22;19904;-83
2021/06/13 13:03:43;;;;;;;;;;;35.60;24.70;;;;;;6254013;23;19943;-82
2021/06/13 13:06:10;;;;;;;;;;;35.70;24.70;;;;;;6254433;23;19954;-83
2021/06/13 13:08:38;;;;;;;;;;;35.50;24.60;;;;;;6254331;22;19908;-82
2021/06/13 13:11:04;;;;;;;;;;;35.30;24.90;;;;;;6254575;23;20338;-82
2021/06/13 13:13:31;;;;;;;;;;;35.30;25.00;;;;;;6253740;23;19903;-83
2021/06/13 13:16:00;;;;;;;;;;;35.10;25.00;;;;;;6253409;23;19903;-82
2021/06/13 13:18:25;;;;;;;;;;;34.80;25.20;;;;;;6253849;22;19911;-83
2021/06/13 13:20:55;;;;;;;;;;;34.70;25.30;;;;;;6253528;23;19903;-83
2021/06/13 13:23:21;;;;;;;;;;;34.40;25.20;;;;;;6254249;22;19904;-82
2021/06/13 13:25:48;;;;;;;;;;;33.90;25.40;;;;;;6252409;23;19903;-82
2021/06/13 13:28:24;;;;;;;;;;;33.70;25.60;;;;;;6252606;23;19911;-82
2021/06/13 13:30:54;;;;;;;;;;;33.50;25.80;;;;;;6252016;23;19904;-82
2021/06/13 13:33:26;;;;;;;;;;;33.50;25.90;;;;;;6253945;22;19907;-82
2021/06/13 13:35:52;;;;;;;;;;;33.60;25.90;;;;;;6253580;23;19904;-83
2021/06/13 13:38:20;;;;;;;;;;;33.60;26.00;;;;;;6252378;22;19931;-82
2021/06/13 13:40:49;;;;;;;;;;;33.70;26.10;;;;;;6253207;22;19914;-83
2021/06/13 13:43:15;;;;;;;;;;;33.70;26.00;;;;;;6251352;23;20241;-82
2021/06/13 13:45:41;;;;;;;;;;;33.40;26.00;;;;;;6252103;23;19904;-83
2021/06/13 13:48:06;;;;;;;;;;;33.20;26.20;;;;;;6252614;23;19908;-83
2021/06/13 13:50:36;;;;;;;;;;;33.00;26.30;;;;;;6252746;22;19904;-83
2021/06/13 13:53:28;;;;;;;;;;;32.70;26.40;;;;;;6252697;22;19903;-82
2021/06/13 13:55:58;;;;;;;;;;;32.00;26.60;;;;;;6252946;22;20369;-83
2021/06/13 13:58:25;;;;;;;;;;;31.20;27.00;;;;;;6250960;22;19908;-82
2021/06/13 14:00:53;;;;;;;;;;;30.70;27.50;;;;;;6251610;23;19927;-82
2021/06/13 14:03:26;;;;;;;;;;;30.10;27.80;;;;;;6252951;22;19914;-83
2021/06/13 14:05:52;;;;;;;;;;;29.80;28.10;;;;;;6251942;23;19966;-82
2021/06/13 14:08:18;;;;;;;;;;;29.50;28.20;;;;;;6251360;22;20307;-82
2021/06/13 14:10:44;;;;;;;;;;;29.40;28.40;;;;;;6251371;23;19903;-83
2021/06/13 14:13:10;;;;;;;;;;;29.20;28.50;;;;;;6252210;22;19904;-82
2021/06/13 14:15:35;;;;;;;;;;;29.20;28.70;;;;;;6253531;22;19919;-83
2021/06/13 14:18:01;;;;;;;;;;;29.20;28.60;;;;;;6252754;23;19908;-82
2021/06/13 14:20:26;;;;;;;;;;;29.30;28.60;;;;;;6253142;22;19954;-83
2021/06/13 14:22:53;;;;;;;;;;;29.20;28.60;;;;;;6250293;23;19910;-83
2021/06/13 14:25:19;;;;;;;;;;;29.10;28.60;;;;;;6251181;23;19903;-82